Time;durP1;ratioP1;P1;durP2;ratioP2;P2;SDS_P1;SDS_P2;PMS_P1;PMS_P2;Temp;Humidity;BMP_temperature;BMP_pressure;BME280_temperature;BME280_humidity;BME280_pressure;Samples;Min_cycle;Max_cycle;Signal;HPM_P1;HPM_P2
2022/12/01 00:00:23;;;;;;;52.10;25.13;;;;;;;2.15;100.00;99395.25;4881676;29;20045;-84
2022/12/01 00:03:19;;;;;;;43.97;21.08;;;;;;;2.04;100.00;99397.22;4863847;29;20724;-84
2022/12/01 00:06:14;;;;;;;43.15;20.40;;;;;;;2.01;100.00;99389.56;4884945;29;20543;-81
2022/12/01 00:12:05;;;;;;;57.03;24.33;;;;;;;1.68;100.00;99391.09;4871796;29;20045;-84
2022/12/01 00:14:59;;;;;;;55.90;25.92;;;;;;;1.66;100.00;99392.03;4883702;29;20100;-85
2022/12/01 00:17:46;;;;;;;48.28;22.63;;;;;;;1.79;100.00;99388.31;4869022;29;20097;-81
2022/12/01 00:20:33;;;;;;;49.28;22.20;;;;;;;1.96;100.00;99392.22;4881627;29;20072;-81
2022/12/01 00:23:18;;;;;;;48.38;22.10;;;;;;;2.01;100.00;99384.38;4879491;29;20048;-83
2022/12/01 00:26:04;;;;;;;52.63;24.55;;;;;;;1.99;100.00;99375.81;4872013;29;20105;-83
2022/12/01 00:28:50;;;;;;;56.70;24.20;;;;;;;1.69;100.00;99367.00;4873500;29;20049;-84
2022/12/01 00:31:34;;;;;;;46.28;21.85;;;;;;;1.74;100.00;99371.19;4869088;29;21494;-84
2022/12/01 00:34:24;;;;;;;49.00;21.17;;;;;;;1.91;100.00;99379.41;4873711;29;20052;-85
2022/12/01 00:37:10;;;;;;;46.92;20.92;;;;;;;2.02;100.00;99386.06;4897541;29;20045;-85
2022/12/01 00:39:56;;;;;;;43.13;20.52;;;;;;;1.94;100.00;99389.66;4873883;29;21186;-84
2022/12/01 00:42:41;;;;;;;44.67;22.15;;;;;;;2.15;100.00;99392.66;4873171;29;20037;-83
2022/12/01 00:45:25;;;;;;;48.08;23.38;;;;;;;2.13;100.00;99380.63;4870343;29;20042;-85
2022/12/01 00:48:10;;;;;;;49.97;24.00;;;;;;;2.11;100.00;99382.41;4869694;29;20053;-83
2022/12/01 00:50:56;;;;;;;44.95;20.60;;;;;;;2.06;100.00;99369.59;4873242;29;20053;-83
2022/12/01 00:53:41;;;;;;;45.65;21.63;;;;;;;2.06;100.00;99377.34;4876890;29;20046;-83
2022/12/01 00:56:25;;;;;;;41.88;20.77;;;;;;;2.08;100.00;99378.16;4874038;29;20067;-83
2022/12/01 00:59:10;;;;;;;45.67;22.23;;;;;;;2.18;100.00;99381.38;4872423;29;20045;-83
2022/12/01 01:01:55;;;;;;;45.10;22.40;;;;;;;2.18;100.00;99376.22;4875900;29;20516;-82
2022/12/01 01:04:40;;;;;;;47.08;21.30;;;;;;;2.12;100.00;99378.94;4879604;29;20560;-82
2022/12/01 01:07:25;;;;;;;50.42;23.40;;;;;;;2.05;100.00;99384.25;4874362;29;20100;-85
2022/12/01 01:10:11;;;;;;;50.45;24.10;;;;;;;1.82;100.00;99383.06;4866629;29;20044;-83
2022/12/01 01:12:55;;;;;;;50.55;23.80;;;;;;;1.73;100.00;99378.06;4883618;29;20052;-84
2022/12/01 01:15:40;;;;;;;55.67;25.60;;;;;;;1.62;100.00;99372.31;4873791;29;20079;-82
2022/12/01 01:18:26;;;;;;;45.42;22.92;;;;;;;1.55;100.00;99374.19;4863330;29;20040;-83
2022/12/01 01:21:16;;;;;;;42.72;20.58;;;;;;;1.63;100.00;99381.75;4886596;29;20088;-84
2022/12/01 01:24:00;;;;;;;43.03;20.45;;;;;;;1.71;100.00;99385.03;4879948;29;20051;-84
2022/12/01 01:26:45;;;;;;;52.78;24.10;;;;;;;1.73;100.00;99380.66;4888553;29;20490;-84
2022/12/01 01:29:29;;;;;;;48.58;24.10;;;;;;;1.65;100.00;99382.59;4880089;29;20045;-84
2022/12/01 01:32:14;;;;;;;41.60;20.73;;;;;;;1.66;100.00;99382.56;4873981;29;20049;-83
2022/12/01 01:34:58;;;;;;;46.45;22.20;;;;;;;1.73;100.00;99380.66;4875947;29;20104;-84
2022/12/01 01:37:43;;;;;;;46.40;22.08;;;;;;;1.88;100.00;99383.81;4861621;29;20057;-83
2022/12/01 01:40:28;;;;;;;45.35;22.05;;;;;;;1.97;100.00;99373.25;4871747;29;20044;-84
2022/12/01 01:43:16;;;;;;;46.25;23.15;;;;;;;2.08;99.94;99367.81;4870969;29;20045;-83
2022/12/01 01:46:04;;;;;;;51.92;23.70;;;;;;;1.84;99.44;99368.34;4909630;29;20041;-83
2022/12/01 01:49:01;;;;;;;46.38;23.52;;;;;;;1.65;100.00;99367.09;4911132;29;20151;-81
2022/12/01 01:51:52;;;;;;;43.90;20.73;;;;;;;1.86;100.00;99372.66;4909144;29;20500;-85
2022/12/01 01:54:41;;;;;;;44.03;19.48;;;;;;;1.92;99.35;99382.84;4899408;29;20104;-83
2022/12/01 01:57:29;;;;;;;45.97;22.80;;;;;;;1.94;100.00;99373.31;4890969;29;20099;-81
2022/12/01 02:00:18;;;;;;;42.72;20.88;;;;;;;1.91;99.35;99384.56;4893561;29;20045;-86
2022/12/01 02:03:03;;;;;;;43.72;20.45;;;;;;;1.74;99.38;99390.13;4906010;29;20409;-84
2022/12/01 02:05:48;;;;;;;42.92;21.02;;;;;;;1.74;99.61;99389.28;4888950;29;20115;-86
2022/12/01 02:08:34;;;;;;;48.17;22.85;;;;;;;1.74;100.00;99389.28;4897938;29;20132;-84
2022/12/01 02:11:47;;;;;;;43.33;21.25;;;;;;;1.67;100.00;99388.56;4907355;29;20054;-84
2022/12/01 02:14:39;;;;;;;51.78;24.70;;;;;;;1.72;100.00;99391.88;4892096;29;20064;-84
2022/12/01 02:17:49;;;;;;;46.45;22.13;;;;;;;1.62;100.00;99385.25;4909989;29;20680;-85
2022/12/01 02:21:12;;;;;;;52.85;24.27;;;;;;;1.45;100.00;99381.28;4910829;29;20044;-82
2022/12/01 02:24:33;;;;;;;50.85;23.35;;;;;;;1.54;100.00;99385.38;4901289;29;20082;-83
2022/12/01 02:27:40;;;;;;;51.25;24.35;;;;;;;1.63;100.00;99374.88;4910006;29;20048;-84
2022/12/01 02:30:48;;;;;;;43.90;22.48;;;;;;;1.53;100.00;99387.13;4908462;29;20906;-86
2022/12/01 02:33:42;;;;;;;49.15;23.80;;;;;;;1.55;100.00;99385.34;4868882;29;20052;-83
2022/12/01 02:36:45;;;;;;;49.47;23.05;;;;;;;1.67;100.00;99378.22;4906099;29;20120;-85
2022/12/01 02:39:54;;;;;;;42.33;21.85;;;;;;;1.65;100.00;99385.19;4918415;29;20053;-83
2022/12/01 02:43:06;;;;;;;46.67;22.63;;;;;;;1.65;100.00;99378.25;4910747;29;20120;-83
2022/12/01 02:46:10;;;;;;;;;;;;;;;1.62;100.00;99388.66;4860523;29;20118;-86
2022/12/01 02:48:58;;;;;;;42.63;20.02;;;;;;;1.56;100.00;99378.47;4851062;29;19928;-83
2022/12/01 02:51:44;;;;;;;52.33;23.52;;;;;;;1.44;100.00;99390.75;4856528;29;20052;-84
2022/12/01 02:54:30;;;;;;;46.63;22.42;;;;;;;1.14;100.00;99389.66;4856046;29;20045;-84
2022/12/01 02:57:23;;;;;;;40.28;18.77;;;;;;;1.14;100.00;99387.06;4863101;29;20072;-83
2022/12/01 03:00:12;;;;;;;50.47;23.73;;;;;;;1.11;100.00;99393.13;4862369;29;20060;-84
2022/12/01 03:03:21;;;;;;;45.40;21.10;;;;;;;1.21;100.00;99401.53;4861780;29;20493;-85
2022/12/01 03:06:48;;;;;;;41.50;19.30;;;;;;;1.30;100.00;99395.34;4860401;29;20045;-83
2022/12/01 03:09:59;;;;;;;47.20;23.30;;;;;;;1.25;100.00;99403.19;4860409;29;20095;-84
2022/12/01 03:12:54;;;;;;;42.92;21.08;;;;;;;1.15;100.00;99394.78;4842332;29;20054;-84
2022/12/01 03:15:45;;;;;;;51.90;25.45;;;;;;;1.11;100.00;99398.28;4865706;29;20057;-85
2022/12/01 03:18:39;;;;;;;41.40;20.45;;;;;;;1.02;100.00;99395.88;4851264;29;20050;-85
2022/12/01 03:21:58;;;;;;;38.58;19.55;;;;;;;1.14;100.00;99393.09;4855457;29;20132;-84
2022/12/01 03:24:46;;;;;;;42.03;19.58;;;;;;;1.16;100.00;99393.88;4890965;29;20091;-84
2022/12/01 03:27:36;;;;;;;45.08;20.40;;;;;;;1.14;100.00;99395.66;4900398;29;20048;-84
2022/12/01 03:30:24;;;;;;;41.63;21.20;;;;;;;1.05;100.00;99391.53;4904779;29;20047;-83
2022/12/01 03:33:18;;;;;;;40.05;19.98;;;;;;;1.04;100.00;99387.25;4907297;29;20507;-85
2022/12/01 03:36:14;;;;;;;44.28;21.52;;;;;;;1.16;100.00;99386.16;4880755;29;20040;-83
2022/12/01 03:39:07;;;;;;;39.97;19.75;;;;;;;1.19;100.00;99375.75;4907311;29;20060;-84
2022/12/01 03:42:10;;;;;;;39.47;20.50;;;;;;;1.25;100.00;99392.00;4899524;29;20036;-86
2022/12/01 03:44:59;;;;;;;47.28;21.55;;;;;;;1.23;99.99;99382.56;4896721;29;20107;-83
2022/12/01 03:47:44;;;;;;;37.30;19.35;;;;;;;1.19;100.00;99387.84;4906495;29;20040;-84
2022/12/01 03:50:45;;;;;;;38.15;19.10;;;;;;;1.14;99.68;99384.50;4895714;29;20037;-84
2022/12/01 03:54:04;;;;;;;38.75;17.95;;;;;;;1.18;99.32;99378.38;4910568;29;20536;-83
2022/12/01 03:56:55;;;;;;;54.28;24.02;;;;;;;1.10;99.19;99381.97;4900487;29;20477;-85
2022/12/01 03:59:43;;;;;;;45.35;21.52;;;;;;;0.93;99.81;99384.03;4901445;29;20143;-86
2022/12/01 04:02:31;;;;;;;40.70;20.58;;;;;;;0.83;100.00;99373.84;4897929;29;20088;-87
2022/12/01 04:05:16;;;;;;;41.97;21.08;;;;;;;0.75;100.00;99367.16;4909055;29;20135;-85
2022/12/01 04:08:01;;;;;;;41.08;19.65;;;;;;;0.83;100.00;99373.03;4904837;29;20194;-81
2022/12/01 04:10:51;;;;;;;43.58;21.08;;;;;;;0.92;100.00;99377.16;4916057;29;20044;-80
2022/12/01 04:13:35;;;;;;;41.45;20.98;;;;;;;0.95;100.00;99379.66;4906941;29;20035;-84
2022/12/01 04:16:23;;;;;;;41.58;19.25;;;;;;;1.07;100.00;99381.16;4904394;29;20043;-83
2022/12/01 04:19:10;;;;;;;43.83;20.13;;;;;;;1.01;99.44;99376.13;4899870;29;20531;-84
2022/12/01 04:21:55;;;;;;;39.53;20.20;;;;;;;0.91;99.60;99378.91;4912032;29;20044;-83
2022/12/01 04:24:39;;;;;;;41.10;20.30;;;;;;;0.92;100.00;99384.88;4907593;29;20048;-83
2022/12/01 04:27:24;;;;;;;39.80;18.67;;;;;;;0.97;99.91;99383.94;4890958;29;20385;-85
2022/12/01 04:30:09;;;;;;;35.33;17.92;;;;;;;0.89;100.00;99383.22;4920064;29;20044;-83
2022/12/01 04:32:54;;;;;;;38.88;18.65;;;;;;;0.97;99.81;99391.69;4895310;29;20067;-85
2022/12/01 04:35:39;;;;;;;41.83;20.83;;;;;;;0.95;99.07;99393.44;4907142;29;20393;-84
2022/12/01 04:38:24;;;;;;;40.38;19.92;;;;;;;0.84;99.62;99385.91;4892519;29;20108;-85
2022/12/01 04:41:11;;;;;;;32.95;18.13;;;;;;;0.73;99.95;99383.50;4891952;29;20069;-87
2022/12/01 04:43:56;;;;;;;36.42;18.58;;;;;;;0.89;99.26;99383.22;4918107;29;20060;-85
2022/12/01 04:46:40;;;;;;;35.90;18.02;;;;;;;0.95;98.97;99392.56;4925088;29;20134;-84
2022/12/01 04:49:25;;;;;;;43.60;20.55;;;;;;;0.95;99.25;99390.84;4904945;29;20055;-84
2022/12/01 04:52:10;;;;;;;45.88;21.58;;;;;;;0.99;99.42;99399.41;4907392;29;20051;-84
2022/12/01 04:54:57;;;;;;;47.13;23.73;;;;;;;0.89;98.56;99400.44;4929762;29;20054;-82
2022/12/01 04:57:42;;;;;;;43.20;21.20;;;;;;;0.78;99.62;99408.38;4911364;29;20059;-85
2022/12/01 05:00:26;;;;;;;36.67;18.80;;;;;;;0.87;99.60;99403.03;4902303;29;20083;-85
2022/12/01 05:03:12;;;;;;;40.67;20.33;;;;;;;0.86;99.33;99399.59;4899733;29;20044;-84
2022/12/01 05:06:01;;;;;;;37.33;18.77;;;;;;;0.94;99.16;99401.19;4898088;29;20040;-84
2022/12/01 05:08:46;;;;;;;39.67;19.85;;;;;;;0.95;98.76;99401.16;4901425;29;20048;-85
2022/12/01 05:11:31;;;;;;;37.78;19.88;;;;;;;1.00;98.44;99405.41;4890377;29;20056;-87
2022/12/01 05:14:17;;;;;;;38.60;19.05;;;;;;;1.05;98.90;99411.31;4912180;29;20328;-84
2022/12/01 05:17:01;;;;;;;36.60;18.73;;;;;;;0.94;98.73;99408.94;4901452;29;20039;-86
2022/12/01 05:22:51;;;;;;;37.38;18.58;;;;;;;0.66;99.46;99406.84;4907821;29;20048;-82
2022/12/01 05:25:36;;;;;;;41.50;20.33;;;;;;;0.69;100.00;99406.78;4914544;29;20052;-84
2022/12/01 05:28:23;;;;;;;38.42;19.58;;;;;;;0.76;100.00;99410.97;4886860;29;20617;-79
2022/12/01 05:31:08;;;;;;;28.17;16.00;;;;;;;0.94;100.00;99407.22;4916102;29;20152;-81
2022/12/01 05:33:53;;;;;;;38.08;18.95;;;;;;;1.30;100.00;99416.88;4889050;29;20058;-80
2022/12/01 05:36:38;;;;;;;39.88;18.75;;;;;;;1.25;100.00;99415.25;4917076;29;20052;-82
2022/12/01 05:39:23;;;;;;;38.22;18.35;;;;;;;0.89;100.00;99410.75;4902779;29;20052;-78
2022/12/01 05:42:08;;;;;;;36.80;18.63;;;;;;;0.94;100.00;99414.09;4923031;29;20051;-80
2022/12/01 05:44:52;;;;;;;34.53;18.17;;;;;;;1.01;100.00;99425.16;4924761;29;20071;-80
2022/12/01 05:47:38;;;;;;;33.70;17.15;;;;;;;1.05;100.00;99424.22;4923922;29;20645;-80
2022/12/01 05:50:24;;;;;;;36.28;18.02;;;;;;;1.12;100.00;99417.22;4924343;29;20055;-80
2022/12/01 05:53:11;;;;;;;34.28;17.92;;;;;;;1.04;99.94;99407.03;4925613;29;20152;-79
2022/12/01 05:55:55;;;;;;;35.25;18.35;;;;;;;0.94;100.00;99424.44;4902230;29;20043;-84
2022/12/01 05:58:41;;;;;;;35.40;18.13;;;;;;;0.94;100.00;99419.25;4888626;29;20132;-82
2022/12/01 06:01:25;;;;;;;37.25;17.95;;;;;;;0.97;100.00;99422.66;4910173;29;20072;-83
2022/12/01 06:04:10;;;;;;;38.97;17.77;;;;;;;0.91;100.00;99424.47;4900201;29;20074;-83
2022/12/01 06:06:54;;;;;;;39.10;19.45;;;;;;;1.00;99.89;99420.91;4895619;29;20045;-83
2022/12/01 06:09:39;;;;;;;39.28;17.80;;;;;;;1.35;100.00;99419.34;4898233;29;20047;-84
2022/12/01 06:12:24;;;;;;;37.17;17.73;;;;;;;1.88;100.00;99420.81;4910587;29;20534;-81
2022/12/01 06:15:11;;;;;;;44.20;21.40;;;;;;;1.86;100.00;99424.34;4913105;29;20087;-84
2022/12/01 06:17:58;;;;;;;39.13;19.13;;;;;;;1.63;100.00;99431.72;4915678;29;20032;-82
2022/12/01 06:20:42;;;;;;;41.28;20.42;;;;;;;1.49;100.00;99431.97;4893047;29;20127;-82
2022/12/01 06:23:27;;;;;;;35.00;17.50;;;;;;;1.33;100.00;99432.31;4911244;29;20100;-83
2022/12/01 06:26:12;;;;;;;33.42;17.52;;;;;;;1.26;100.00;99433.28;4914074;29;20142;-85
2022/12/01 06:28:56;;;;;;;40.75;17.95;;;;;;;1.35;100.00;99430.50;4915079;29;20048;-81
2022/12/01 06:31:41;;;;;;;38.42;17.48;;;;;;;1.53;100.00;99420.72;4899811;29;20050;-83
2022/12/01 06:34:26;;;;;;;42.13;18.88;;;;;;;1.64;100.00;99420.47;4899976;29;20127;-85
2022/12/01 06:37:11;;;;;;;43.08;19.52;;;;;;;1.65;100.00;99422.16;4906685;29;20054;-85
2022/12/01 06:39:55;;;;;;;41.33;21.27;;;;;;;1.73;99.16;99419.41;4905904;29;20064;-84
2022/12/01 06:42:40;;;;;;;34.90;17.50;;;;;;;1.90;100.00;99429.41;4908758;29;20450;-81
2022/12/01 06:45:25;;;;;;;36.42;17.55;;;;;;;2.01;96.85;99433.50;4914364;29;20079;-82
2022/12/01 06:48:11;;;;;;;39.75;20.15;;;;;;;2.40;95.84;99432.59;4914651;29;20062;-83
2022/12/01 06:50:57;;;;;;;36.88;19.67;;;;;;;2.66;93.17;99438.88;4899299;29;20044;-83
2022/12/01 06:53:42;;;;;;;38.15;19.58;;;;;;;2.62;91.82;99438.09;4915760;29;20040;-84
2022/12/01 06:56:26;;;;;;;43.08;21.90;;;;;;;2.91;91.13;99441.66;4900701;29;20057;-84
2022/12/01 06:59:11;;;;;;;42.30;20.90;;;;;;;2.98;89.34;99439.75;4908720;29;20048;-85
2022/12/01 07:01:56;;;;;;;40.95;19.70;;;;;;;3.09;90.92;99444.66;4906339;29;20058;-85
2022/12/01 07:04:41;;;;;;;48.47;23.88;;;;;;;3.19;88.99;99450.44;4911878;29;20053;-83
2022/12/01 07:07:26;;;;;;;45.05;23.77;;;;;;;2.65;88.80;99455.25;4900180;29;20064;-84
2022/12/01 07:10:12;;;;;;;43.47;22.55;;;;;;;2.42;91.86;99451.50;4891762;29;20059;-84
2022/12/01 07:12:59;;;;;;;38.97;20.02;;;;;;;2.54;93.22;99446.03;4891582;29;20181;-85
2022/12/01 07:15:45;;;;;;;40.78;20.38;;;;;;;2.67;92.31;99441.41;4900085;29;20045;-84
2022/12/01 07:18:33;;;;;;;38.95;20.00;;;;;;;2.76;93.21;99447.25;4894277;29;20040;-86
2022/12/01 07:21:21;;;;;;;39.83;19.73;;;;;;;2.76;91.66;99449.84;4912068;29;20052;-83
2022/12/01 07:24:08;;;;;;;43.92;21.05;;;;;;;2.71;91.41;99455.97;4897542;29;20041;-84
2022/12/01 07:26:53;;;;;;;33.72;18.45;;;;;;;2.68;93.16;99452.59;4907992;29;20044;-84
2022/12/01 07:29:39;;;;;;;39.20;20.17;;;;;;;2.71;93.00;99461.13;4905605;29;20045;-82
2022/12/01 07:32:24;;;;;;;41.08;21.00;;;;;;;2.67;92.11;99456.06;4908185;29;20047;-84
2022/12/01 07:35:09;;;;;;;42.03;20.13;;;;;;;2.57;93.21;99463.22;4907000;29;20396;-86
2022/12/01 07:37:55;;;;;;;42.20;19.88;;;;;;;2.53;93.40;99462.44;4912974;29;20037;-85
2022/12/01 07:40:40;;;;;;;37.97;19.90;;;;;;;2.39;93.29;99467.09;4898176;29;20047;-83
2022/12/01 07:43:25;;;;;;;40.00;20.80;;;;;;;2.28;93.94;99464.75;4909554;29;20059;-83
2022/12/01 07:46:16;;;;;;;45.60;22.25;;;;;;;2.04;95.13;99467.03;4897781;29;20044;-83
2022/12/01 07:49:04;;;;;;;47.55;22.45;;;;;;;1.97;94.79;99469.72;4895462;29;20047;-84
2022/12/01 07:51:49;;;;;;;51.13;23.88;;;;;;;1.90;96.26;99472.47;4909773;29;20506;-84
2022/12/01 07:54:33;;;;;;;43.05;21.33;;;;;;;1.91;96.76;99466.44;4910576;29;20207;-82
2022/12/01 07:57:19;;;;;;;47.92;23.15;;;;;;;1.75;96.18;99461.59;4901974;29;20073;-84
2022/12/01 08:00:06;;;;;;;45.10;22.27;;;;;;;1.60;97.61;99470.50;4897343;29;20498;-84
2022/12/01 08:02:56;;;;;;;43.67;21.30;;;;;;;1.68;97.70;99475.53;4909025;29;20033;-86
2022/12/01 08:05:41;;;;;;;49.20;22.92;;;;;;;1.96;96.88;99473.19;4887172;29;20048;-83
2022/12/01 08:08:26;;;;;;;36.85;19.40;;;;;;;2.11;95.99;99465.13;4910321;29;20138;-84
2022/12/01 08:11:16;;;;;;;45.65;22.17;;;;;;;2.17;94.99;99478.78;4897868;29;20676;-83
2022/12/01 08:14:01;;;;;;;45.03;21.83;;;;;;;2.06;95.28;99479.03;4906141;29;20056;-84
2022/12/01 08:16:47;;;;;;;42.25;21.85;;;;;;;2.02;95.87;99479.13;4913910;29;20044;-85
2022/12/01 08:19:31;;;;;;;40.10;19.90;;;;;;;2.16;95.74;99490.00;4889957;29;20064;-85
2022/12/01 08:22:16;;;;;;;45.42;22.50;;;;;;;2.33;95.84;99494.78;4909766;29;20067;-84
2022/12/01 08:25:01;;;;;;;44.50;21.95;;;;;;;2.29;95.60;99490.59;4916273;29;20202;-84
2022/12/01 08:27:46;;;;;;;45.20;22.88;;;;;;;2.33;94.96;99502.53;4910349;29;20167;-84
2022/12/01 08:30:31;;;;;;;45.05;22.15;;;;;;;2.50;94.71;99492.72;4899707;29;20087;-83
2022/12/01 08:33:17;;;;;;;48.97;23.75;;;;;;;2.09;94.17;99491.88;4906065;29;20180;-83
2022/12/01 08:36:03;;;;;;;40.50;21.10;;;;;;;2.39;95.34;99498.13;4908719;29;20040;-83
2022/12/01 08:38:52;;;;;;;39.03;19.48;;;;;;;2.55;94.92;99494.31;4901918;29;20048;-84
2022/12/01 08:41:39;;;;;;;54.58;23.58;;;;;;;2.80;93.99;99498.03;4895113;29;20063;-84
2022/12/01 08:44:23;;;;;;;41.38;21.67;;;;;;;2.99;92.55;99507.94;4903808;29;20131;-82
2022/12/01 08:47:08;;;;;;;46.25;22.35;;;;;;;3.16;91.68;99498.00;4907736;29;20064;-84
2022/12/01 08:49:53;;;;;;;43.05;22.02;;;;;;;3.30;90.87;99496.75;4897293;29;20466;-82
2022/12/01 08:52:38;;;;;;;47.92;24.25;;;;;;;3.27;89.97;99502.03;4904188;29;20063;-84
2022/12/01 08:55:23;;;;;;;45.33;22.70;;;;;;;3.17;90.32;99502.28;4911380;29;20041;-84
2022/12/01 08:58:09;;;;;;;40.30;20.77;;;;;;;3.40;90.06;99505.13;4899064;29;20056;-84
2022/12/01 09:01:11;;;;;;;51.08;23.88;;;;;;;3.76;87.58;99510.19;4911501;29;20052;-83
2022/12/01 09:04:07;;;;;;;45.17;21.20;;;;;;;4.21;86.38;99504.59;4898335;29;20353;-83
2022/12/01 09:06:53;;;;;;;45.80;23.60;;;;;;;4.88;82.52;99505.09;4890736;29;20052;-83
2022/12/01 09:09:38;;;;;;;45.35;22.35;;;;;;;5.60;79.63;99505.25;4894067;29;20241;-84
2022/12/01 09:12:22;;;;;;;47.42;22.40;;;;;;;6.87;74.35;99502.16;4897546;29;20139;-85
2022/12/01 09:15:08;;;;;;;43.55;20.42;;;;;;;7.92;71.06;99510.72;4893659;29;20056;-85
2022/12/01 09:17:53;;;;;;;42.28;21.45;;;;;;;8.08;69.38;99502.19;4914505;29;20044;-84
2022/12/01 09:20:38;;;;;;;35.75;19.23;;;;;;;8.61;68.06;99497.13;4885535;29;20052;-84
2022/12/01 09:23:23;;;;;;;39.60;20.38;;;;;;;9.29;63.59;99489.41;4901942;29;20044;-83
2022/12/01 09:26:09;;;;;;;37.30;19.13;;;;;;;9.80;63.24;99484.13;4907381;29;20140;-82
2022/12/01 09:28:57;;;;;;;36.35;18.52;;;;;;;9.90;62.38;99486.25;4891815;29;20048;-83
2022/12/01 09:31:42;;;;;;;37.92;19.73;;;;;;;8.80;66.52;99483.13;4914701;29;20377;-81
2022/12/01 09:34:27;;;;;;;39.03;19.30;;;;;;;8.14;68.65;99484.47;4902216;29;20044;-82
2022/12/01 09:37:13;;;;;;;36.20;17.35;;;;;;;8.76;66.57;99495.53;4912075;29;20135;-83
2022/12/01 09:39:58;;;;;;;36.17;19.60;;;;;;;9.67;61.83;99491.81;4899617;29;20139;-82
2022/12/01 09:42:46;;;;;;;32.65;17.60;;;;;;;9.93;62.72;99492.16;4916146;29;20046;-84
2022/12/01 09:45:38;;;;;;;38.85;19.55;;;;;;;9.86;61.52;99488.19;4914662;29;20051;-84
2022/12/01 09:48:25;;;;;;;35.53;17.02;;;;;;;9.43;61.68;99480.88;4897432;29;20062;-83
2022/12/01 09:51:18;;;;;;;48.85;19.58;;;;;;;9.42;63.02;99480.00;4892555;29;20052;-82
2022/12/01 09:54:03;;;;;;;39.38;19.33;;;;;;;9.56;65.64;99474.06;4913277;29;20044;-84
2022/12/01 09:56:54;;;;;;;38.38;19.45;;;;;;;9.60;60.35;99469.50;4900068;29;20044;-82
2022/12/01 09:59:42;;;;;;;44.90;20.58;;;;;;;10.18;60.57;99461.19;4901415;29;20720;-84
2022/12/01 10:02:36;;;;;;;43.88;21.15;;;;;;;10.67;57.86;99469.81;4905319;29;20084;-84
2022/12/01 10:05:28;;;;;;;37.50;18.90;;;;;;;10.91;60.73;99467.56;4917967;29;20067;-85
2022/12/01 10:08:17;;;;;;;44.42;19.98;;;;;;;11.38;56.88;99462.16;4911923;29;20039;-83
2022/12/01 10:11:12;;;;;;;39.35;20.67;;;;;;;11.34;56.25;99458.06;4908308;29;20072;-83
2022/12/01 10:13:58;;;;;;;37.60;18.92;;;;;;;11.14;58.34;99446.97;4908789;29;20050;-82
2022/12/01 10:17:21;;;;;;;39.33;19.55;;;;;;;10.25;58.36;99445.97;4895112;29;20063;-83
2022/12/01 10:20:09;;;;;;;45.80;22.02;;;;;;;9.46;59.89;99446.69;4906848;29;20045;-85
2022/12/01 10:23:17;;;;;;;38.70;19.17;;;;;;;9.43;63.80;99441.63;4916836;29;20540;-84
2022/12/01 10:26:13;;;;;;;31.40;16.05;;;;;;;9.22;65.55;99453.13;4906190;29;20044;-84
2022/12/01 10:29:03;;;;;;;37.95;19.05;;;;;;;9.51;63.15;99449.06;4911064;29;20396;-85
2022/12/01 10:31:57;;;;;;;36.90;18.52;;;;;;;9.45;64.41;99445.84;4908878;29;20250;-83
2022/12/01 10:34:45;;;;;;;39.70;20.30;;;;;;;10.07;63.37;99443.47;4913923;29;20041;-84
2022/12/01 10:37:31;;;;;;;35.95;19.00;;;;;;;10.22;60.88;99442.59;4895041;29;20047;-84
2022/12/01 10:40:17;;;;;;;45.53;21.67;;;;;;;10.66;57.89;99439.28;4914195;29;20114;-85
2022/12/01 10:43:02;;;;;;;35.78;18.52;;;;;;;10.54;61.56;99443.50;4909696;29;20044;-85
2022/12/01 10:45:47;;;;;;;32.80;17.15;;;;;;;10.69;62.29;99442.59;4884761;29;20172;-84
2022/12/01 10:48:50;;;;;;;34.17;18.10;;;;;;;10.69;61.37;99439.97;4907223;29;20094;-82
2022/12/01 10:51:47;;;;;;;36.25;18.63;;;;;;;10.40;58.63;99439.84;4882317;29;20154;-81
2022/12/01 10:54:39;;;;;;;36.17;18.05;;;;;;;10.41;58.01;99430.22;4912145;29;20044;-84
2022/12/01 10:57:26;;;;;;;41.60;19.67;;;;;;;10.70;56.25;99417.25;4904316;29;20039;-84
2022/12/01 11:00:25;;;;;;;33.17;16.88;;;;;;;11.40;58.39;99423.56;4886801;29;20051;-85
2022/12/01 11:03:19;;;;;;;39.10;19.38;;;;;;;12.00;55.74;99415.50;4879325;29;20053;-82
2022/12/01 11:06:06;;;;;;;37.13;17.65;;;;;;;11.08;57.37;99402.78;4897066;29;20127;-84
2022/12/01 11:09:18;;;;;;;36.33;16.88;;;;;;;10.93;57.99;99408.03;4883111;29;20056;-82
2022/12/01 11:12:04;;;;;;;31.73;15.05;;;;;;;10.83;60.65;99412.97;4896379;29;20052;-83
2022/12/01 11:14:56;;;;;;;31.13;15.90;;;;;;;10.83;59.54;99417.34;4888427;29;20056;-83
2022/12/01 11:17:42;;;;;;;36.22;18.13;;;;;;;9.63;62.10;99424.84;4879049;29;20041;-84
2022/12/01 11:20:35;;;;;;;35.47;18.13;;;;;;;9.91;62.71;99422.50;4880935;29;20057;-82
2022/12/01 11:23:27;;;;;;;38.35;19.05;;;;;;;9.96;62.79;99408.25;4879020;29;20059;-83
2022/12/01 11:26:33;;;;;;;37.95;18.95;;;;;;;9.69;61.80;99406.22;4894050;29;20048;-85
2022/12/01 11:29:30;;;;;;;36.35;18.20;;;;;;;9.52;64.38;99403.66;4885708;29;20101;-86
2022/12/01 11:32:22;;;;;;;36.17;17.08;;;;;;;9.23;64.08;99402.53;4881826;29;20519;-84
2022/12/01 11:35:19;;;;;;;38.40;19.40;;;;;;;8.83;63.81;99402.00;4883831;29;20047;-85
2022/12/01 11:38:06;;;;;;;40.00;19.92;;;;;;;8.99;66.28;99409.91;4857642;29;20053;-85
2022/12/01 11:40:54;;;;;;;36.20;17.88;;;;;;;9.33;64.67;99407.28;4845622;29;20057;-83
2022/12/01 11:43:38;;;;;;;42.03;20.08;;;;;;;9.07;63.88;99402.50;4856064;29;20053;-81
2022/12/01 11:46:36;;;;;;;36.55;18.27;;;;;;;8.95;62.48;99411.81;4853669;29;20107;-85
2022/12/01 11:49:28;;;;;;;33.33;17.27;;;;;;;9.22;65.34;99411.28;4853633;29;20438;-85
2022/12/01 11:52:35;;;;;;;33.10;16.65;;;;;;;8.17;61.16;99405.19;4855430;29;20045;-84
2022/12/01 11:55:25;;;;;;;35.25;17.15;;;;;;;8.08;66.23;99406.44;4865456;29;20057;-85
2022/12/01 11:58:09;;;;;;;32.70;16.83;;;;;;;8.55;68.15;99412.06;4858143;29;20539;-83
2022/12/01 12:00:56;;;;;;;27.80;14.77;;;;;;;8.96;67.18;99408.28;4853585;29;20234;-83
2022/12/01 12:04:03;;;;;;;31.08;15.93;;;;;;;8.99;67.74;99413.34;4854157;29;20049;-85
2022/12/01 12:07:02;;;;;;;33.13;16.75;;;;;;;8.71;67.16;99401.72;4852483;29;20188;-84
2022/12/01 12:09:50;;;;;;;41.80;19.27;;;;;;;8.70;66.97;99407.00;4856590;29;20162;-83
2022/12/01 12:12:44;;;;;;;36.63;18.60;;;;;;;8.37;67.08;99398.16;4854982;29;20080;-85
2022/12/01 12:15:58;;;;;;;34.15;17.45;;;;;;;8.04;68.68;99397.09;4888627;29;20146;-83
2022/12/01 12:18:46;;;;;;;37.55;17.95;;;;;;;7.89;67.37;99402.13;4914899;29;20036;-83
2022/12/01 12:21:34;;;;;;;33.08;17.60;;;;;;;7.72;69.49;99395.06;4912318;29;20036;-86
2022/12/01 12:24:45;;;;;;;35.83;17.77;;;;;;;7.83;71.08;99392.00;4909624;29;20048;-84
2022/12/01 12:27:41;;;;;;;34.35;17.05;;;;;;;7.98;70.86;99387.78;4908418;29;20161;-84
2022/12/01 12:30:29;;;;;;;33.17;16.85;;;;;;;8.37;67.30;99385.91;4902103;29;20063;-84
2022/12/01 12:33:48;;;;;;;33.03;16.58;;;;;;;8.51;66.96;99376.56;4911884;29;20114;-83
2022/12/01 12:36:39;;;;;;;32.40;16.05;;;;;;;8.43;65.26;99376.94;4909678;29;20052;-84
2022/12/01 12:39:27;;;;;;;32.70;16.83;;;;;;;7.55;64.95;99382.84;4909970;29;20044;-83
2022/12/01 12:42:27;;;;;;;38.03;18.65;;;;;;;7.71;66.71;99376.91;4905403;29;20053;-85
2022/12/01 12:45:29;;;;;;;32.05;15.80;;;;;;;7.78;67.04;99373.09;4908168;29;20056;-83
2022/12/01 12:48:20;;;;;;;37.25;19.83;;;;;;;7.29;66.41;99371.00;4908106;29;20044;-85
2022/12/01 12:51:18;;;;;;;39.10;20.13;;;;;;;7.15;67.99;99370.69;4909736;29;20041;-82
2022/12/01 12:54:30;;;;;;;38.05;19.23;;;;;;;6.58;70.52;99368.78;4908398;29;20060;-84
2022/12/01 12:57:42;;;;;;;38.83;19.27;;;;;;;7.01;70.23;99366.09;4902787;29;20109;-83
2022/12/01 13:00:28;;;;;;;;;;;;;;;7.50;69.55;99367.41;4898887;29;20040;-85
2022/12/01 13:03:23;;;;;;;36.03;17.30;;;;;;;7.14;69.38;99371.63;4909683;29;19999;-83
2022/12/01 13:06:24;;;;;;;38.50;19.35;;;;;;;7.83;67.75;99365.91;4912951;29;20053;-85
2022/12/01 13:09:15;;;;;;;29.40;16.80;;;;;;;7.70;68.18;99365.63;4913022;29;20047;-85
2022/12/01 13:12:25;;;;;;;39.33;20.50;;;;;;;7.43;66.64;99365.13;4899478;29;20044;-84